Time;durP1;ratioP1;P1;durP2;ratioP2;P2;SDS_P1;SDS_P2;PMS_P1;PMS_P2;Temp;Humidity;BMP_temperature;BMP_pressure;BME280_temperature;BME280_humidity;BME280_pressure;Samples;Min_cycle;Max_cycle;Signal;HPM_P1;HPM_P2
2023/02/05 00:00:54;;;;;;;6.30;3.40;;;-1.40;99.90;;;;;;2099531;28;20029;-75
2023/02/05 00:01:54;;;;;;;5.80;3.60;;;-1.40;99.90;;;;;;2094414;28;20016;-75
2023/02/05 00:02:55;;;;;;;4.72;3.28;;;-1.40;99.90;;;;;;2086882;28;20392;-76
2023/02/05 00:03:55;;;;;;;5.50;3.33;;;-1.40;99.90;;;;;;2085732;28;20749;-75
2023/02/05 00:04:56;;;;;;;5.20;3.28;;;-1.40;99.90;;;;;;2087163;28;20029;-74
2023/02/05 00:05:56;;;;;;;6.07;3.67;;;-1.40;99.90;;;;;;2092218;28;20029;-75
2023/02/05 00:06:57;;;;;;;6.57;3.85;;;-1.50;99.90;;;;;;2099788;28;20487;-75
2023/02/05 00:07:58;;;;;;;7.82;3.80;;;-1.40;99.90;;;;;;2093887;28;20020;-75
2023/02/05 00:08:58;;;;;;;6.93;3.95;;;-1.50;99.90;;;;;;2088581;28;20616;-75
2023/02/05 00:09:59;;;;;;;6.40;4.00;;;-1.50;99.90;;;;;;2093504;28;20032;-75
2023/02/05 00:11:07;;;;;;;6.78;3.83;;;-1.50;99.90;;;;;;2086813;28;20457;-76
2023/02/05 00:12:07;;;;;;;6.47;3.60;;;-1.50;99.90;;;;;;2084155;28;20079;-74
2023/02/05 00:13:08;;;;;;;7.63;3.85;;;-1.60;99.90;;;;;;2091517;28;20074;-76
2023/02/05 00:14:09;;;;;;;7.88;3.80;;;-1.60;99.90;;;;;;2096118;28;20036;-74
2023/02/05 00:15:10;;;;;;;7.85;3.90;;;-1.60;99.90;;;;;;2095387;28;20119;-74
2023/02/05 00:16:18;;;;;;;6.50;4.10;;;-1.70;99.90;;;;;;2093168;28;20036;-76
2023/02/05 00:17:19;;;;;;;5.38;3.88;;;-1.70;99.90;;;;;;2086232;28;20028;-76
2023/02/05 00:18:20;;;;;;;6.85;3.75;;;-1.70;99.90;;;;;;2092217;28;20066;-74
2023/02/05 00:19:20;;;;;;;7.35;3.75;;;-1.70;99.90;;;;;;2095541;28;20104;-74
2023/02/05 00:20:21;;;;;;;5.65;3.70;;;-1.70;99.90;;;;;;2080873;28;20036;-76
2023/02/05 00:21:22;;;;;;;6.72;3.70;;;-1.70;99.90;;;;;;2093539;28;20056;-76
2023/02/05 00:22:22;;;;;;;8.55;4.03;;;-1.70;99.90;;;;;;2091123;28;20522;-76
2023/02/05 00:23:23;;;;;;;5.90;3.80;;;-1.70;99.90;;;;;;2086619;28;20025;-75
2023/02/05 00:24:24;;;;;;;7.05;3.40;;;-1.70;99.90;;;;;;2093377;28;20021;-76
2023/02/05 00:25:24;;;;;;;5.97;3.80;;;-1.70;99.90;;;;;;2094605;28;20593;-76
2023/02/05 00:26:25;;;;;;;7.20;4.20;;;-1.70;99.90;;;;;;2090439;28;20427;-76
2023/02/05 00:27:25;;;;;;;6.47;4.22;;;-1.80;99.90;;;;;;2096773;28;20043;-76
2023/02/05 00:28:26;;;;;;;6.07;4.00;;;-1.70;99.90;;;;;;2097051;28;20028;-76
2023/02/05 00:29:26;;;;;;;6.65;4.00;;;-1.80;99.90;;;;;;2102035;28;20841;-76
2023/02/05 00:30:27;;;;;;;8.30;4.25;;;-1.80;99.90;;;;;;2095437;28;20632;-76
2023/02/05 00:31:29;;;;;;;7.18;3.85;;;-1.80;99.90;;;;;;2090940;28;20070;-75
2023/02/05 00:32:29;;;;;;;6.50;3.88;;;-1.80;99.90;;;;;;2091100;28;20094;-75
2023/02/05 00:33:30;;;;;;;6.53;3.90;;;-1.80;99.90;;;;;;2086988;28;20572;-75
2023/02/05 00:34:30;;;;;;;8.27;4.03;;;-1.80;99.90;;;;;;2091084;28;20119;-76
2023/02/05 00:35:31;;;;;;;6.10;3.90;;;-1.80;99.90;;;;;;2088788;28;20392;-76
2023/02/05 00:36:31;;;;;;;6.82;3.65;;;-1.80;99.90;;;;;;2090557;28;20063;-75
2023/02/05 00:37:32;;;;;;;6.10;3.83;;;-1.80;99.90;;;;;;2086378;28;20032;-75
2023/02/05 00:38:33;;;;;;;6.95;3.63;;;-1.80;99.90;;;;;;2082750;28;20033;-75
2023/02/05 00:39:33;;;;;;;6.72;3.92;;;-1.80;99.90;;;;;;2093059;28;20032;-75
2023/02/05 00:40:34;;;;;;;7.15;3.90;;;-1.80;99.90;;;;;;2074613;28;20056;-75
2023/02/05 00:41:36;;;;;;;7.90;3.92;;;-1.80;99.90;;;;;;2084644;28;20027;-75
2023/02/05 00:42:39;;;;;;;5.55;3.75;;;-1.90;99.90;;;;;;2087075;28;20513;-75
2023/02/05 00:43:41;;;;;;;6.63;3.80;;;-1.90;99.90;;;;;;2092566;28;20034;-76
2023/02/05 00:44:42;;;;;;;6.65;4.05;;;-1.90;99.90;;;;;;2092961;28;20087;-75
2023/02/05 00:45:42;;;;;;;5.95;3.92;;;-1.90;99.90;;;;;;2088884;28;20033;-75
2023/02/05 00:46:43;;;;;;;5.18;3.50;;;-1.90;99.90;;;;;;2082574;28;20048;-75
2023/02/05 00:47:43;;;;;;;6.55;3.88;;;-1.90;99.90;;;;;;2084744;28;20111;-75
2023/02/05 00:48:44;;;;;;;6.53;3.88;;;-2.00;99.90;;;;;;2082800;28;20025;-76
2023/02/05 00:49:44;;;;;;;6.60;3.85;;;-2.00;99.90;;;;;;2077911;28;20021;-74
2023/02/05 00:50:48;;;;;;;6.28;3.88;;;-2.00;99.90;;;;;;2090744;28;20059;-76
2023/02/05 00:51:48;;;;;;;5.68;4.00;;;-2.00;99.90;;;;;;2100042;28;20028;-75
2023/02/05 00:52:49;;;;;;;7.22;4.10;;;-2.00;99.90;;;;;;2092259;28;20044;-74
2023/02/05 00:53:49;;;;;;;6.50;4.13;;;-2.00;99.90;;;;;;2086043;28;20124;-75
2023/02/05 00:54:52;;;;;;;6.28;3.90;;;-2.00;99.90;;;;;;2082726;28;20127;-75
2023/02/05 00:55:53;;;;;;;6.72;4.25;;;-2.00;99.90;;;;;;2090462;28;20020;-75
2023/02/05 00:56:53;;;;;;;6.47;3.85;;;-2.00;99.90;;;;;;2096831;28;20096;-75
2023/02/05 00:57:54;;;;;;;6.13;3.85;;;-2.00;99.90;;;;;;2092243;28;20545;-75
2023/02/05 00:58:56;;;;;;;5.90;3.88;;;-2.00;99.90;;;;;;2090501;28;20027;-75
2023/02/05 00:59:56;;;;;;;5.53;3.75;;;-2.00;99.90;;;;;;2086222;28;20498;-75
2023/02/05 01:00:57;;;;;;;6.55;3.90;;;-2.00;99.90;;;;;;2077760;28;20030;-75
2023/02/05 01:01:58;;;;;;;6.22;4.10;;;-2.00;99.90;;;;;;2084734;28;20025;-75
2023/02/05 01:02:59;;;;;;;6.72;4.10;;;-2.00;99.90;;;;;;2093875;28;20032;-75
2023/02/05 01:04:00;;;;;;;6.57;4.40;;;-2.00;99.90;;;;;;2088920;28;20025;-75
2023/02/05 01:05:00;;;;;;;6.72;4.00;;;-2.00;99.90;;;;;;2091068;28;20856;-76
2023/02/05 01:06:02;;;;;;;7.57;4.40;;;-2.00;99.90;;;;;;2092685;28;20044;-75
2023/02/05 01:07:03;;;;;;;7.78;4.43;;;-2.00;99.90;;;;;;2092674;28;20411;-75
2023/02/05 01:08:04;;;;;;;7.15;4.22;;;-2.10;99.90;;;;;;2096016;28;20139;-75
2023/02/05 01:09:05;;;;;;;7.32;4.47;;;-2.10;99.90;;;;;;2086276;28;20029;-75
2023/02/05 01:10:06;;;;;;;6.78;4.70;;;-2.10;99.90;;;;;;2082589;28;20120;-75
2023/02/05 01:11:10;;;;;;;8.63;4.53;;;-2.10;99.90;;;;;;2084735;28;20526;-75
2023/02/05 01:12:12;;;;;;;6.60;4.35;;;-2.10;99.90;;;;;;2093538;28;20871;-75
2023/02/05 01:13:14;;;;;;;7.40;4.70;;;-2.10;99.90;;;;;;2085977;28;20385;-75
2023/02/05 01:14:14;;;;;;;6.28;4.20;;;-2.10;99.90;;;;;;2086877;28;20148;-76
2023/02/05 01:15:15;;;;;;;6.75;4.82;;;-2.10;99.90;;;;;;2081528;28;20044;-76
2023/02/05 01:16:16;;;;;;;7.32;4.65;;;-2.20;99.90;;;;;;2074881;28;20155;-76
2023/02/05 01:17:16;;;;;;;8.38;4.85;;;-2.20;99.90;;;;;;2084654;28;20036;-74
2023/02/05 01:18:17;;;;;;;7.15;4.80;;;-2.20;99.90;;;;;;2086414;28;20138;-74
2023/02/05 01:19:17;;;;;;;9.32;4.80;;;-2.20;99.90;;;;;;2094581;28;20395;-75
2023/02/05 01:20:19;;;;;;;8.20;5.00;;;-2.20;99.90;;;;;;2088735;28;20029;-75
2023/02/05 01:21:19;;;;;;;9.13;4.93;;;-2.20;99.90;;;;;;2084510;28;20033;-76
2023/02/05 01:22:20;;;;;;;8.18;5.13;;;-2.20;99.90;;;;;;2090216;28;20025;-75
2023/02/05 01:23:21;;;;;;;9.05;5.05;;;-2.20;99.90;;;;;;2085376;28;20029;-74
2023/02/05 01:24:21;;;;;;;9.68;5.00;;;-2.20;99.90;;;;;;2080787;28;20045;-75
2023/02/05 01:25:22;;;;;;;8.43;5.20;;;-2.20;99.90;;;;;;2091988;28;20024;-75
2023/02/05 01:26:23;;;;;;;7.93;5.13;;;-2.20;99.90;;;;;;2084992;28;20028;-75
2023/02/05 01:27:23;;;;;;;9.15;5.45;;;-2.20;99.90;;;;;;2088966;28;20113;-75
2023/02/05 01:28:24;;;;;;;9.50;5.50;;;-2.20;99.90;;;;;;2083043;28;20029;-75
2023/02/05 01:29:25;;;;;;;9.07;5.40;;;-2.20;99.90;;;;;;2084531;28;20064;-75
2023/02/05 01:30:26;;;;;;;9.50;5.60;;;-2.20;99.90;;;;;;2102390;28;20522;-74
2023/02/05 01:31:28;;;;;;;11.80;5.97;;;-2.20;99.90;;;;;;2102239;28;20807;-74
2023/02/05 01:32:29;;;;;;;9.77;5.80;;;-2.20;99.90;;;;;;2092790;28;20506;-75
2023/02/05 01:33:30;;;;;;;10.25;5.70;;;-2.20;99.90;;;;;;2085559;28;20059;-75
2023/02/05 01:34:30;;;;;;;10.55;6.15;;;-2.20;99.90;;;;;;2091106;28;20032;-75
2023/02/05 01:35:31;;;;;;;12.55;6.80;;;-2.20;99.90;;;;;;2088819;28;20029;-75
2023/02/05 01:36:32;;;;;;;11.18;6.63;;;-2.20;99.90;;;;;;2089686;28;20676;-75
2023/02/05 01:37:32;;;;;;;12.70;7.47;;;-2.20;99.90;;;;;;2096253;28;20033;-74
2023/02/05 01:38:33;;;;;;;14.57;7.88;;;-2.20;99.90;;;;;;2091166;28;20009;-75
2023/02/05 01:39:36;;;;;;;12.35;7.50;;;-2.20;99.90;;;;;;2080627;28;20038;-75
2023/02/05 01:40:36;;;;;;;14.20;7.60;;;-2.20;99.90;;;;;;2087790;28;20028;-76
2023/02/05 01:41:40;;;;;;;14.48;8.05;;;-2.20;99.90;;;;;;2096594;28;20036;-75
2023/02/05 01:42:42;;;;;;;11.40;6.93;;;-2.20;99.90;;;;;;2083170;28;20017;-75
2023/02/05 01:43:42;;;;;;;11.95;6.78;;;-2.20;99.90;;;;;;2082335;28;20036;-74
2023/02/05 01:44:43;;;;;;;14.20;6.95;;;-2.20;99.90;;;;;;2082311;28;20029;-74
2023/02/05 01:45:56;;;;;;;11.52;6.50;;;-2.30;99.90;;;;;;2071639;28;20044;-75
2023/02/05 01:46:57;;;;;;;10.65;6.57;;;-2.30;99.90;;;;;;2089574;28;20046;-74
2023/02/05 01:48:00;;;;;;;9.82;6.10;;;-2.30;99.90;;;;;;2092698;28;20025;-74
2023/02/05 01:49:01;;;;;;;9.70;5.65;;;-2.40;99.90;;;;;;2091155;28;20763;-75
2023/02/05 01:50:02;;;;;;;8.80;5.53;;;-2.40;99.90;;;;;;2090836;28;20025;-75
2023/02/05 01:51:10;;;;;;;9.48;5.90;;;-2.40;99.90;;;;;;2082706;28;20116;-76
2023/02/05 01:52:14;;;;;;;12.48;6.65;;;-2.40;99.90;;;;;;2079287;28;20482;-74
2023/02/05 01:53:20;;;;;;;10.60;6.57;;;-2.40;99.90;;;;;;2084570;28;20090;-71
2023/02/05 01:54:24;;;;;;;12.82;7.53;;;-2.40;99.90;;;;;;2085122;28;20045;-71
2023/02/05 01:55:26;;;;;;;17.65;9.77;;;-2.50;99.90;;;;;;2093436;28;20376;-71
2023/02/05 01:56:41;;;;;;;18.08;9.98;;;-2.50;99.90;;;;;;2092031;28;20049;-71
2023/02/05 01:57:42;;;;;;;18.05;9.90;;;-2.50;99.90;;;;;;2074751;28;20036;-71
2023/02/05 01:58:50;;;;;;;17.02;8.95;;;-2.50;99.90;;;;;;2084188;28;20416;-71
2023/02/05 01:59:51;;;;;;;17.65;8.85;;;-2.50;99.90;;;;;;2082054;28;20087;-70
2023/02/05 02:00:52;;;;;;;19.45;9.38;;;-2.50;99.90;;;;;;2083272;28;20146;-70
2023/02/05 02:01:53;;;;;;;18.70;9.23;;;-2.60;99.90;;;;;;2086785;28;20085;-71
2023/02/05 02:02:54;;;;;;;19.65;9.48;;;-2.60;99.90;;;;;;2097633;28;20012;-71
2023/02/05 02:03:57;;;;;;;19.55;9.10;;;-2.60;99.90;;;;;;2089709;28;20092;-71
2023/02/05 02:05:02;;;;;;;17.10;8.77;;;-2.60;99.90;;;;;;2085559;28;20602;-71
2023/02/05 02:06:03;;;;;;;16.38;8.45;;;-2.60;99.90;;;;;;2090683;28;20721;-70
2023/02/05 02:07:05;;;;;;;15.50;7.90;;;-2.60;99.90;;;;;;2090293;28;20115;-71
2023/02/05 02:08:08;;;;;;;14.57;7.25;;;-2.60;99.90;;;;;;2086376;28;20435;-71
2023/02/05 02:09:09;;;;;;;12.82;7.18;;;-2.70;99.90;;;;;;2087232;28;20039;-70
2023/02/05 02:10:13;;;;;;;15.07;7.50;;;-2.70;99.90;;;;;;2092223;28;20052;-70
2023/02/05 02:11:18;;;;;;;13.98;7.25;;;-2.70;99.90;;;;;;2080268;28;20029;-71
2023/02/05 02:12:22;;;;;;;14.40;7.35;;;-2.70;99.90;;;;;;2082207;28;20037;-71
2023/02/05 02:13:26;;;;;;;16.17;7.60;;;-2.70;99.90;;;;;;2075483;28;20041;-71
2023/02/05 02:14:29;;;;;;;15.88;7.50;;;-2.70;99.90;;;;;;2082323;28;20043;-71
2023/02/05 02:15:31;;;;;;;16.25;7.22;;;-2.70;99.90;;;;;;2086820;28;20856;-71
2023/02/05 02:16:34;;;;;;;14.27;6.80;;;-2.70;99.90;;;;;;2078505;28;20120;-70
2023/02/05 02:17:39;;;;;;;11.45;6.07;;;-2.70;99.90;;;;;;2082248;28;20021;-70
2023/02/05 02:18:39;;;;;;;11.43;6.18;;;-2.70;99.90;;;;;;2080804;28;20636;-70
2023/02/05 02:19:52;;;;;;;11.70;6.15;;;-2.70;99.90;;;;;;2085837;28;20143;-70
2023/02/05 02:21:34;;;;;;;13.43;6.50;;;-2.70;99.90;;;;;;2093020;28;20487;-71
2023/02/05 02:22:46;;;;;;;14.05;6.43;;;-2.70;99.90;;;;;;2092601;28;20029;-70
2023/02/05 02:24:33;;;;;;;13.70;6.70;;;-2.70;99.90;;;;;;2076800;28;20026;-71
2023/02/05 02:25:36;;;;;;;16.20;6.50;;;-2.70;99.90;;;;;;2079694;28;20812;-71
2023/02/05 02:26:52;;;;;;;13.00;5.80;;;-2.80;99.90;;;;;;2087887;28;20020;-71
2023/02/05 02:28:27;;;;;;;14.38;6.38;;;-2.80;99.90;;;;;;2087753;28;20028;-70
2023/02/05 02:29:33;;;;;;;14.00;6.43;;;-2.80;99.90;;;;;;2080368;28;20032;-70
2023/02/05 02:30:45;;;;;;;12.32;5.95;;;-2.90;99.90;;;;;;2079113;28;20056;-71
2023/02/05 02:32:29;;;;;;;12.07;5.95;;;-2.90;99.90;;;;;;2081570;28;20025;-70
2023/02/05 02:33:33;;;;;;;14.43;6.32;;;-2.90;99.90;;;;;;2084175;28;20052;-75
2023/02/05 02:34:40;;;;;;;15.10;6.45;;;-2.90;99.90;;;;;;2088176;28;20111;-76
2023/02/05 02:35:50;;;;;;;15.15;6.30;;;-2.90;99.90;;;;;;2081108;28;20582;-75
2023/02/05 02:36:55;;;;;;;17.27;6.85;;;-2.90;99.90;;;;;;2088186;28;20029;-72
2023/02/05 02:38:00;;;;;;;16.95;6.55;;;-2.90;99.90;;;;;;2086596;28;20037;-72
2023/02/05 02:39:11;;;;;;;18.95;6.75;;;-2.90;99.90;;;;;;2070567;28;20536;-73
2023/02/05 02:40:20;;;;;;;21.27;7.28;;;-2.90;99.90;;;;;;2083656;28;20444;-73
2023/02/05 02:41:30;;;;;;;15.55;5.72;;;-2.90;99.90;;;;;;2078615;28;20041;-73
2023/02/05 02:42:44;;;;;;;14.38;6.80;;;-2.90;99.90;;;;;;2081943;28;20065;-73
2023/02/05 02:43:51;;;;;;;19.23;6.72;;;-2.90;99.90;;;;;;2073179;28;20112;-74
2023/02/05 02:45:03;;;;;;;18.15;6.88;;;-2.90;99.90;;;;;;2075071;28;20838;-73
2023/02/05 02:46:15;;;;;;;17.15;6.78;;;-2.90;99.90;;;;;;2081038;28;20067;-74
2023/02/05 02:47:22;;;;;;;17.27;6.90;;;-2.90;99.90;;;;;;2087942;28;20469;-74
2023/02/05 02:48:26;;;;;;;15.27;6.60;;;-2.90;99.90;;;;;;2089518;28;20523;-73
2023/02/05 02:49:32;;;;;;;15.05;6.25;;;-2.90;99.90;;;;;;2092826;28;20473;-73
2023/02/05 02:50:39;;;;;;;17.10;6.53;;;-2.90;99.90;;;;;;2089915;28;20021;-73
2023/02/05 02:51:41;;;;;;;23.98;8.23;;;-2.90;99.90;;;;;;2082843;28;20040;-73
2023/02/05 02:52:45;;;;;;;25.40;8.45;;;-2.90;99.90;;;;;;2088398;28;20045;-73
2023/02/05 02:53:49;;;;;;;20.38;8.20;;;-2.90;99.90;;;;;;2089808;28;20032;-73
2023/02/05 02:54:53;;;;;;;28.77;9.60;;;-3.00;99.90;;;;;;2091076;28;20517;-73
2023/02/05 02:55:57;;;;;;;38.60;10.68;;;-3.00;99.90;;;;;;2087654;28;20415;-74
2023/02/05 02:57:00;;;;;;;37.05;11.07;;;-3.00;99.90;;;;;;2083817;28;20036;-73
2023/02/05 02:58:03;;;;;;;28.27;10.02;;;-3.00;99.90;;;;;;2077960;28;20062;-74
2023/02/05 02:59:09;;;;;;;27.70;9.32;;;-3.00;99.90;;;;;;2080760;28;20067;-74
2023/02/05 03:00:24;;;;;;;21.63;8.13;;;-3.00;99.90;;;;;;2081028;28;20032;-73
2023/02/05 03:01:28;;;;;;;28.38;9.40;;;-3.00;99.90;;;;;;2081610;28;20053;-73
2023/02/05 03:02:31;;;;;;;30.00;8.80;;;-3.00;99.90;;;;;;2081969;28;20032;-72
2023/02/05 03:03:37;;;;;;;23.30;8.48;;;-3.00;99.90;;;;;;2084059;28;20613;-72
2023/02/05 03:04:40;;;;;;;20.13;7.70;;;-3.00;99.90;;;;;;2095294;28;20033;-73
2023/02/05 03:05:43;;;;;;;23.52;7.90;;;-3.00;99.90;;;;;;2095402;28;20036;-73
2023/02/05 03:06:47;;;;;;;23.30;8.23;;;-3.00;99.90;;;;;;2091745;28;20068;-73
2023/02/05 03:08:11;;;;;;;20.90;7.65;;;-3.00;99.90;;;;;;2091886;28;20036;-73
2023/02/05 03:09:22;;;;;;;20.48;7.88;;;-3.00;99.90;;;;;;2092088;28;20058;-74
2023/02/05 03:10:41;;;;;;;22.00;7.72;;;-3.00;99.90;;;;;;2089085;28;20502;-73
2023/02/05 03:11:41;;;;;;;19.00;7.22;;;-3.00;99.90;;;;;;2089301;28;20447;-72
2023/02/05 03:12:43;;;;;;;18.10;7.55;;;-3.10;99.90;;;;;;2086504;28;20163;-74
2023/02/05 03:13:44;;;;;;;14.77;7.05;;;-3.10;99.90;;;;;;2084852;28;20029;-74
2023/02/05 03:14:45;;;;;;;19.23;8.50;;;-3.10;99.90;;;;;;2093760;28;20024;-72
2023/02/05 03:15:46;;;;;;;17.40;8.32;;;-3.10;99.90;;;;;;2091609;28;20066;-73
2023/02/05 03:16:48;;;;;;;17.10;8.57;;;-3.10;99.90;;;;;;2083600;28;20025;-73
2023/02/05 03:17:51;;;;;;;21.92;9.45;;;-3.10;99.90;;;;;;2084043;28;20206;-73
2023/02/05 03:18:54;;;;;;;19.45;9.00;;;-3.10;99.90;;;;;;2081134;28;20503;-74
2023/02/05 03:20:04;;;;;;;22.70;10.02;;;-3.20;99.90;;;;;;2083725;28;20770;-75
2023/02/05 03:21:16;;;;;;;20.77;9.65;;;-3.20;99.90;;;;;;2083811;28;20021;-73
2023/02/05 03:22:16;;;;;;;18.00;9.50;;;-3.10;99.90;;;;;;2091403;28;20017;-73
2023/02/05 03:23:17;;;;;;;16.88;9.35;;;-3.20;99.90;;;;;;2083557;28;20048;-74
2023/02/05 03:24:18;;;;;;;16.02;9.30;;;-3.20;99.90;;;;;;2096381;28;20036;-72
2023/02/05 03:25:21;;;;;;;17.17;9.48;;;-3.20;99.90;;;;;;2087727;28;20581;-73
2023/02/05 03:26:25;;;;;;;15.55;8.68;;;-3.10;99.90;;;;;;2080013;28;20039;-73
2023/02/05 03:27:29;;;;;;;15.35;8.80;;;-3.20;99.90;;;;;;2081947;28;20025;-73
2023/02/05 03:28:31;;;;;;;15.45;8.80;;;-3.20;99.90;;;;;;2071478;28;20026;-72
2023/02/05 03:29:43;;;;;;;14.10;9.00;;;-3.20;99.90;;;;;;2069840;28;20029;-73
2023/02/05 03:31:06;;;;;;;15.30;9.00;;;-3.20;99.90;;;;;;2088385;28;20028;-73
2023/02/05 03:32:19;;;;;;;19.13;9.27;;;-3.20;99.90;;;;;;2095651;28;20063;-73
2023/02/05 03:33:42;;;;;;;17.33;8.85;;;-3.20;99.90;;;;;;2084946;28;20582;-73
2023/02/05 03:35:15;;;;;;;18.13;9.73;;;-3.20;99.90;;;;;;2084186;28;20234;-73
2023/02/05 03:36:41;;;;;;;16.45;9.13;;;-3.20;99.90;;;;;;2089685;28;20090;-73
2023/02/05 03:38:09;;;;;;;15.13;7.90;;;-3.30;99.90;;;;;;2080049;28;20467;-73
2023/02/05 03:39:43;;;;;;;13.77;7.40;;;-3.30;99.90;;;;;;2084951;28;20027;-74
2023/02/05 03:40:52;;;;;;;12.68;6.45;;;-3.30;99.90;;;;;;2091252;28;20024;-73
2023/02/05 03:42:24;;;;;;;11.50;6.78;;;-3.30;99.90;;;;;;2081190;28;20613;-73
2023/02/05 03:43:31;;;;;;;8.07;5.47;;;-3.30;99.90;;;;;;2081288;28;20028;-73
2023/02/05 03:45:01;;;;;;;9.00;5.55;;;-3.40;99.90;;;;;;2084278;28;20508;-73
2023/02/05 03:46:06;;;;;;;10.43;5.90;;;-3.40;99.90;;;;;;2084906;28;20041;-73
2023/02/05 03:47:34;;;;;;;12.25;5.97;;;-3.40;99.90;;;;;;2078485;28;20044;-73
2023/02/05 03:48:56;;;;;;;11.25;5.68;;;-3.40;99.90;;;;;;2085296;28;20032;-73
2023/02/05 03:50:41;;;;;;;10.77;5.72;;;-3.40;99.90;;;;;;2089055;28;20020;-73
2023/02/05 03:51:42;;;;;;;10.60;5.80;;;-3.40;99.90;;;;;;2091763;28;20024;-73
2023/02/05 03:53:02;;;;;;;9.07;5.63;;;-3.40;99.90;;;;;;2090729;28;20037;-73
2023/02/05 03:54:24;;;;;;;11.40;5.75;;;-3.40;99.90;;;;;;2082806;28;20738;-73
2023/02/05 03:55:31;;;;;;;10.32;5.63;;;-3.40;99.90;;;;;;2081153;28;20055;-72
2023/02/05 03:56:41;;;;;;;12.00;6.07;;;-3.40;99.90;;;;;;2078573;28;20380;-72
2023/02/05 03:58:07;;;;;;;10.45;5.53;;;-3.40;99.90;;;;;;2085487;28;20041;-72
2023/02/05 03:59:10;;;;;;;9.80;5.75;;;-3.40;99.90;;;;;;2093465;28;20112;-73
2023/02/05 04:00:11;;;;;;;10.65;5.82;;;-3.40;99.90;;;;;;2091479;28;20044;-73
2023/02/05 04:01:17;;;;;;;8.98;5.25;;;-3.40;99.90;;;;;;2083550;28;20037;-74
2023/02/05 04:02:20;;;;;;;8.18;5.18;;;-3.40;99.90;;;;;;2078440;28;20068;-73
2023/02/05 04:03:21;;;;;;;9.45;5.45;;;-3.40;99.90;;;;;;2091377;28;20028;-74
2023/02/05 04:04:23;;;;;;;9.82;5.50;;;-3.40;99.90;;;;;;2080359;28;20040;-72
2023/02/05 04:05:24;;;;;;;8.57;5.10;;;-3.40;99.90;;;;;;2074475;28;20050;-72
2023/02/05 04:06:27;;;;;;;11.57;5.40;;;-3.40;99.90;;;;;;2074735;28;20567;-72
2023/02/05 04:07:27;;;;;;;11.38;6.03;;;-3.40;99.90;;;;;;2071042;28;20597;-72
2023/02/05 04:08:28;;;;;;;9.45;5.72;;;-3.40;99.90;;;;;;2078276;28;20028;-73
2023/02/05 04:09:30;;;;;;;10.02;5.47;;;-3.40;99.90;;;;;;2085401;28;20056;-72
2023/02/05 04:10:31;;;;;;;11.25;5.65;;;-3.40;99.90;;;;;;2092879;28;20512;-74
2023/02/05 04:11:34;;;;;;;10.73;5.78;;;-3.40;99.90;;;;;;2091260;28;20040;-72
2023/02/05 04:12:37;;;;;;;12.48;5.93;;;-3.40;99.90;;;;;;2083748;28;20459;-71
2023/02/05 04:13:38;;;;;;;10.48;5.78;;;-3.40;99.90;;;;;;2095914;28;20024;-74
2023/02/05 04:14:41;;;;;;;9.40;5.40;;;-3.50;99.90;;;;;;2101271;28;20030;-73
2023/02/05 04:15:48;;;;;;;12.02;6.15;;;-3.50;99.90;;;;;;2089141;28;20104;-72
2023/02/05 04:16:49;;;;;;;11.30;5.85;;;-3.50;99.90;;;;;;2082768;28;20053;-73
2023/02/05 04:17:51;;;;;;;12.10;5.97;;;-3.50;99.90;;;;;;2095853;28;20053;-72
2023/02/05 04:18:52;;;;;;;10.27;6.00;;;-3.50;99.90;;;;;;2083778;28;20693;-71
2023/02/05 04:19:53;;;;;;;10.93;5.85;;;-3.50;99.90;;;;;;2081339;28;20025;-73
2023/02/05 04:20:54;;;;;;;12.98;5.97;;;-3.50;99.90;;;;;;2082906;28;20107;-72
2023/02/05 04:21:58;;;;;;;15.10;6.88;;;-3.50;99.90;;;;;;2083106;28;20028;-72
2023/02/05 04:22:59;;;;;;;18.20;7.90;;;-3.50;99.90;;;;;;2085137;28;20068;-72
2023/02/05 04:24:00;;;;;;;17.55;8.45;;;-3.50;99.90;;;;;;2078275;28;20033;-73
2023/02/05 04:25:02;;;;;;;17.40;7.85;;;-3.50;99.90;;;;;;2089336;28;20807;-73
2023/02/05 04:26:03;;;;;;;16.83;8.15;;;-3.60;99.90;;;;;;2082810;28;20040;-73
2023/02/05 04:27:09;;;;;;;17.25;7.90;;;-3.60;99.90;;;;;;2090386;28;20659;-73
2023/02/05 04:28:11;;;;;;;17.63;8.27;;;-3.60;99.90;;;;;;2095816;28;20024;-73
2023/02/05 04:29:12;;;;;;;19.02;8.68;;;-3.60;99.90;;;;;;2086400;28;20127;-73
2023/02/05 04:30:17;;;;;;;19.40;8.75;;;-3.60;99.90;;;;;;2085972;28;20029;-73
2023/02/05 04:31:19;;;;;;;21.70;9.50;;;-3.70;99.90;;;;;;2088010;28;20012;-73
2023/02/05 04:32:20;;;;;;;21.38;9.85;;;-3.70;99.90;;;;;;2084897;28;20029;-73
2023/02/05 04:33:21;;;;;;;23.23;10.93;;;-3.70;99.90;;;;;;2077840;28;20507;-73
2023/02/05 04:34:22;;;;;;;23.58;11.30;;;-3.70;99.90;;;;;;2087076;28;20499;-74
2023/02/05 04:35:23;;;;;;;24.48;10.63;;;-3.70;99.90;;;;;;2088997;28;20024;-73
2023/02/05 04:36:24;;;;;;;21.60;10.48;;;-3.70;99.90;;;;;;2082770;28;20040;-73
2023/02/05 04:37:24;;;;;;;22.67;11.13;;;-3.70;99.90;;;;;;2092968;28;20066;-73
2023/02/05 04:38:26;;;;;;;28.55;11.63;;;-3.80;99.90;;;;;;2086166;28;20048;-73
2023/02/05 04:39:26;;;;;;;28.20;11.88;;;-3.80;99.90;;;;;;2077552;28;20829;-73
2023/02/05 04:40:27;;;;;;;25.08;11.43;;;-3.80;99.90;;;;;;2082790;28;20103;-73
2023/02/05 04:41:27;;;;;;;24.55;11.32;;;-3.80;99.90;;;;;;2089033;28;20024;-73
2023/02/05 04:42:28;;;;;;;25.63;11.68;;;-3.80;99.90;;;;;;2095748;28;20032;-73
2023/02/05 04:43:28;;;;;;;22.33;10.48;;;-3.80;99.90;;;;;;2090451;28;20789;-73
2023/02/05 04:44:29;;;;;;;23.05;10.73;;;-3.80;99.90;;;;;;2090891;28;20414;-73
2023/02/05 04:45:32;;;;;;;20.20;9.50;;;-3.80;99.90;;;;;;2085799;28;20058;-73
2023/02/05 04:46:32;;;;;;;21.95;9.90;;;-3.80;99.90;;;;;;2088846;28;20530;-74
2023/02/05 04:47:34;;;;;;;20.02;9.38;;;-3.80;99.90;;;;;;2097199;28;20028;-73
2023/02/05 04:48:34;;;;;;;21.67;9.82;;;-3.80;99.90;;;;;;2090513;28;20039;-72
2023/02/05 04:49:35;;;;;;;20.60;9.43;;;-3.80;99.90;;;;;;2086201;28;20029;-73
2023/02/05 04:50:37;;;;;;;21.50;9.35;;;-3.80;99.90;;;;;;2093049;28;20067;-73
2023/02/05 04:51:38;;;;;;;17.75;8.90;;;-3.80;99.90;;;;;;2094238;28;20025;-73
2023/02/05 04:52:38;;;;;;;21.05;9.60;;;-3.80;99.90;;;;;;2085689;28;20396;-74
2023/02/05 04:53:40;;;;;;;17.45;8.80;;;-3.80;99.90;;;;;;2089056;28;20498;-72
2023/02/05 04:54:41;;;;;;;19.80;9.45;;;-3.80;99.90;;;;;;2096008;28;20019;-73
2023/02/05 04:55:41;;;;;;;18.02;9.35;;;-3.80;99.90;;;;;;2088262;28;20066;-73
2023/02/05 04:56:42;;;;;;;18.35;9.25;;;-3.80;99.90;;;;;;2093047;28;20617;-72
2023/02/05 04:57:42;;;;;;;20.88;9.52;;;-3.80;99.90;;;;;;2088524;28;20471;-73
2023/02/05 04:58:43;;;;;;;16.58;8.68;;;-3.80;99.90;;;;;;2083832;28;20029;-72
2023/02/05 04:59:44;;;;;;;16.63;7.95;;;-3.80;99.90;;;;;;2095564;28;20024;-73
2023/02/05 05:00:45;;;;;;;13.32;7.65;;;-3.80;99.90;;;;;;2098292;28;20431;-72
2023/02/05 05:01:45;;;;;;;14.18;7.47;;;-3.80;99.90;;;;;;2079312;28;20032;-72
2023/02/05 05:02:46;;;;;;;15.43;7.45;;;-3.80;99.90;;;;;;2070966;28;20039;-72
2023/02/05 05:03:47;;;;;;;13.13;7.05;;;-3.80;99.90;;;;;;2090092;28;20023;-72
2023/02/05 05:04:48;;;;;;;12.25;7.32;;;-3.80;99.90;;;;;;2079463;28;20646;-72
2023/02/05 05:05:48;;;;;;;13.65;7.30;;;-3.80;99.90;;;;;;2071436;28;20061;-72
2023/02/05 05:06:49;;;;;;;12.35;7.03;;;-3.80;99.90;;;;;;2084674;28;20028;-72
2023/02/05 05:07:49;;;;;;;10.93;6.53;;;-3.80;99.90;;;;;;2090892;28;20039;-73
2023/02/05 05:08:50;;;;;;;12.60;6.47;;;-3.80;99.90;;;;;;2090950;28;20032;-73
2023/02/05 05:09:50;;;;;;;11.98;6.43;;;-3.80;99.90;;;;;;2092912;28;20125;-73
2023/02/05 05:10:51;;;;;;;10.93;6.55;;;-3.70;99.90;;;;;;2090542;28;20033;-72
2023/02/05 05:11:53;;;;;;;15.75;6.70;;;-3.70;99.90;;;;;;2084407;28;20029;-73
2023/02/05 05:12:53;;;;;;;10.70;6.70;;;-3.70;99.90;;;;;;2078893;28;20036;-73
2023/02/05 05:13:54;;;;;;;12.23;6.65;;;-3.70;99.90;;;;;;2079050;28;20197;-73
2023/02/05 05:14:55;;;;;;;12.50;6.97;;;-3.70;99.90;;;;;;2099321;28;20028;-73
2023/02/05 05:15:56;;;;;;;10.93;6.45;;;-3.70;99.90;;;;;;2096791;28;20039;-72
2023/02/05 05:16:56;;;;;;;11.68;6.50;;;-3.70;99.90;;;;;;2085877;28;20492;-73
2023/02/05 05:17:57;;;;;;;11.35;6.40;;;-3.60;99.90;;;;;;2085774;28;20506;-73
2023/02/05 05:18:58;;;;;;;11.00;6.63;;;-3.60;99.90;;;;;;2089102;28;20546;-73
2023/02/05 05:20:02;;;;;;;11.15;6.35;;;-3.60;99.90;;;;;;2092727;28;20028;-74
2023/02/05 05:21:03;;;;;;;11.32;6.05;;;-3.50;99.90;;;;;;2088811;28;20096;-73
2023/02/05 05:22:03;;;;;;;9.63;6.47;;;-3.50;99.90;;;;;;2083278;28;20037;-72
2023/02/05 05:23:04;;;;;;;11.48;6.38;;;-3.50;99.90;;;;;;2088732;28;20124;-73
2023/02/05 05:24:05;;;;;;;11.43;6.80;;;-3.40;99.90;;;;;;2099562;28;20051;-73
2023/02/05 05:25:05;;;;;;;10.80;6.50;;;-3.40;99.90;;;;;;2092572;28;20028;-72
2023/02/05 05:26:07;;;;;;;9.80;6.20;;;-3.40;99.90;;;;;;2090645;28;20032;-72
2023/02/05 05:27:08;;;;;;;10.70;6.30;;;-3.40;99.90;;;;;;2094884;28;20514;-72
2023/02/05 05:28:09;;;;;;;9.88;6.13;;;-3.40;99.90;;;;;;2094246;28;20036;-73
2023/02/05 05:29:14;;;;;;;11.00;6.30;;;-3.30;99.90;;;;;;2092068;28;20745;-73
2023/02/05 05:30:15;;;;;;;9.45;6.15;;;-3.30;99.90;;;;;;2097447;28;20059;-73
2023/02/05 05:31:18;;;;;;;10.57;6.05;;;-3.30;99.90;;;;;;2090810;28;20033;-73
2023/02/05 05:32:18;;;;;;;10.60;6.10;;;-3.20;99.90;;;;;;2089054;28;20758;-72